Weather at Boundary Bay Airport

Public forecast

Using degrees Celsius for public forecast. Weather courtesy of forecast.io.

Closest aviation weather report (METAR) to Boundary Bay Airport

Closest report is Vancouver International Airport, 9.9 nm (18.3 km) NW. Retrieved 2021/06/12 20:00 UTC (48 minutes ago):

CYVR 122000Z 11007KT 070V150 25SM FEW025 FEW030 FEW040 FEW045 SCT120 19/11 A3001 RMK SC1SC1CU1CU1AC1 SC TR CU TR TCU TOPS E SW SLP164 DENSITY ALT 400FT

Closest aviation forecast (TAF) to Boundary Bay Airport

Closest forecast is Vancouver International Airport, 9.9 nm (18.3 km) NW. Retrieved 2021/06/12 21:40 UTC (0 seconds ago):

TAF CYVR 122038Z 1221/1324 VRB03KT P6SM FEW040 SCT220 BECMG 1221/1223 26007KT FM122300 26007KT P6SM BKN140 OVC200 FM130300 VRB03KT P6SM SCT050 OVC100 FM130500 VRB03KT P6SM -RA OVC050 FM130800 11010G20KT 6SM -RA BR SCT015 OVC040 TEMPO 1308/1315 3SM -RA BR SCT008 OVC020 PROB30 1308/1315 21/2SM -RA BR BKN008 OVC012 FM131500 12010KT P6SM -SHRA BKN020 OVC040 FM132000 13008KT P6SM SCT020 BKN040 RMK NXT FCST BY 130000Z